createdAt,value
2022-09-29T00:01:41.545Z,96.25
2022-09-29T00:04:11.097Z,96.23
2022-09-29T00:06:40.676Z,96.18
2022-09-29T00:09:10.250Z,96.22
2022-09-29T00:11:42.868Z,96.43
2022-09-29T00:14:12.538Z,96.30
2022-09-29T00:16:42.254Z,96.30
2022-09-29T00:19:12.197Z,96.37
2022-09-29T00:21:41.733Z,96.24
2022-09-29T00:24:11.457Z,96.14
2022-09-29T00:26:46.712Z,96.07
2022-09-29T00:29:16.374Z,96.12
2022-09-29T00:31:45.953Z,96.38
2022-09-29T00:34:15.589Z,96.20
2022-09-29T00:36:45.115Z,96.20
2022-09-29T00:39:14.738Z,96.49
2022-09-29T00:41:46.890Z,96.41
2022-09-29T00:44:46.507Z,96.48
2022-09-29T00:47:17.589Z,96.37
2022-09-29T00:49:51.169Z,96.34
2022-09-29T00:52:24.983Z,96.50
2022-09-29T00:54:56.496Z,96.78
2022-09-29T00:57:32.078Z,96.66
2022-09-29T01:00:05.060Z,96.88
2022-09-29T01:02:37.286Z,96.84
2022-09-29T01:05:09.234Z,97.11
2022-09-29T01:07:39.140Z,97.25
2022-09-29T01:10:09.549Z,97.21
2022-09-29T01:12:41.662Z,97.04
2022-09-29T01:15:11.977Z,97.04
2022-09-29T01:17:41.575Z,97.10
2022-09-29T01:20:15.263Z,97.03
2022-09-29T01:23:20.438Z,96.97
2022-09-29T01:25:52.671Z,97.02
2022-09-29T01:28:43.306Z,96.78
2022-09-29T01:31:22.680Z,96.63
2022-09-29T01:33:57.685Z,96.74
2022-09-29T01:36:32.866Z,96.93
2022-09-29T01:39:10.225Z,97.02
2022-09-29T01:41:44.424Z,97.50
2022-09-29T01:44:16.458Z,97.44
2022-09-29T01:46:52.018Z,97.59
2022-09-29T01:49:22.448Z,97.52
2022-09-29T01:51:56.085Z,97.49
2022-09-29T01:54:28.458Z,97.57
2022-09-29T01:57:02.477Z,97.34
2022-09-29T01:59:39.226Z,97.58
2022-09-29T02:02:14.942Z,97.46
2022-09-29T02:04:47.001Z,97.55
2022-09-29T02:07:20.003Z,97.86
2022-09-29T02:09:52.191Z,97.63
2022-09-29T02:12:26.600Z,97.79
2022-09-29T02:14:56.759Z,97.79
2022-09-29T02:17:33.037Z,97.87
2022-09-29T02:20:02.851Z,97.57
2022-09-29T02:22:32.468Z,97.81
2022-09-29T02:25:02.257Z,97.81
2022-09-29T02:27:33.903Z,97.98
2022-09-29T02:30:03.631Z,97.83
2022-09-29T02:32:36.606Z,97.76
2022-09-29T02:35:09.454Z,97.61
2022-09-29T02:37:46.219Z,97.67
2022-09-29T02:40:31.057Z,97.50
2022-09-29T02:43:13.733Z,97.87
2022-09-29T02:45:50.420Z,97.70
2022-09-29T02:48:37.843Z,97.64
2022-09-29T02:51:16.374Z,97.89
2022-09-29T02:54:10.663Z,98.03
2022-09-29T02:56:45.624Z,97.99
2022-09-29T02:59:18.259Z,97.84
2022-09-29T03:01:52.462Z,98.15
2022-09-29T03:04:25.043Z,98.28
2022-09-29T03:06:54.745Z,98.05
2022-09-29T03:09:24.416Z,98.01
2022-09-29T03:11:54.088Z,98.09
2022-09-29T03:14:23.646Z,98.06
2022-09-29T03:16:53.721Z,98.14
2022-09-29T03:19:25.832Z,97.96
2022-09-29T03:21:55.392Z,98.29
2022-09-29T03:24:24.949Z,98.04
2022-09-29T03:26:54.490Z,98.44
2022-09-29T03:29:24.124Z,98.47
2022-09-29T03:31:53.792Z,98.42
2022-09-29T03:34:25.936Z,98.30
2022-09-29T03:36:55.585Z,98.49
2022-09-29T03:39:25.141Z,98.39
2022-09-29T03:41:54.942Z,98.47
2022-09-29T03:44:24.521Z,98.24
2022-09-29T03:46:54.077Z,98.08
2022-09-29T03:49:26.208Z,98.37
2022-09-29T03:51:55.773Z,98.12
2022-09-29T03:54:27.255Z,98.11
2022-09-29T03:56:56.912Z,98.28
2022-09-29T03:59:26.444Z,98.47
2022-09-29T04:01:56.439Z,98.22
2022-09-29T04:04:28.671Z,98.46
2022-09-29T04:06:58.293Z,98.19
2022-09-29T04:09:27.831Z,98.33
2022-09-29T04:11:57.425Z,98.00
2022-09-29T04:14:27.050Z,97.92
2022-09-29T04:16:56.608Z,97.80
2022-09-29T04:19:28.766Z,97.93
2022-09-29T04:21:58.569Z,97.81
2022-09-29T04:24:28.137Z,97.96
2022-09-29T04:26:57.708Z,97.86
2022-09-29T04:29:27.449Z,98.25
2022-09-29T04:31:57.089Z,98.22
2022-09-29T04:34:29.289Z,98.17
2022-09-29T04:36:58.847Z,98.25
2022-09-29T04:39:28.625Z,98.29
2022-09-29T04:41:58.203Z,98.13
2022-09-29T04:44:27.737Z,98.31
2022-09-29T04:46:57.413Z,98.28
2022-09-29T04:49:29.726Z,98.45
2022-09-29T04:51:59.385Z,98.33
2022-09-29T04:54:28.913Z,98.25
2022-09-29T04:56:58.506Z,98.17
2022-09-29T04:59:28.305Z,98.14
2022-09-29T05:01:57.972Z,98.21
2022-09-29T05:04:30.163Z,98.15
2022-09-29T05:06:59.746Z,98.47
2022-09-29T05:09:33.332Z,98.35
2022-09-29T05:12:03.557Z,98.46
2022-09-29T05:14:33.303Z,98.01
2022-09-29T05:17:02.890Z,98.12
2022-09-29T05:19:35.084Z,98.14
2022-09-29T05:22:05.168Z,97.95
2022-09-29T05:24:34.844Z,98.27
2022-09-29T05:27:04.454Z,98.58
2022-09-29T05:29:34.009Z,98.50
2022-09-29T05:32:03.932Z,98.60
2022-09-29T05:34:36.083Z,98.50
2022-09-29T05:37:05.636Z,98.54
2022-09-29T05:39:37.226Z,98.58
2022-09-29T05:42:07.045Z,98.55
2022-09-29T05:44:36.604Z,98.40
2022-09-29T05:47:06.195Z,98.65
2022-09-29T05:49:39.076Z,98.68
2022-09-29T05:52:08.957Z,98.80
2022-09-29T05:54:38.485Z,98.86
2022-09-29T05:57:08.039Z,98.79
2022-09-29T05:59:37.763Z,98.79
2022-09-29T06:02:07.332Z,98.98
2022-09-29T06:04:40.892Z,98.87
2022-09-29T06:07:10.689Z,98.84
2022-09-29T06:09:40.373Z,98.94
2022-09-29T06:12:09.969Z,99.08
2022-09-29T06:14:39.516Z,98.91
2022-09-29T06:17:09.069Z,99.10
2022-09-29T06:19:44.592Z,99.25
2022-09-29T06:22:14.624Z,99.30
2022-09-29T06:24:44.192Z,99.25
2022-09-29T06:27:14.593Z,99.20
2022-09-29T06:29:44.156Z,99.58
2022-09-29T06:32:13.853Z,99.65
2022-09-29T06:34:58.819Z,99.47
2022-09-29T06:37:39.612Z,99.58
2022-09-29T06:40:11.538Z,99.65
2022-09-29T06:42:41.940Z,99.52
2022-09-29T06:45:12.873Z,99.43
2022-09-29T06:47:42.487Z,99.46
2022-09-29T06:50:22.058Z,99.25
2022-09-29T06:53:03.453Z,99.38
2022-09-29T06:55:34.198Z,99.17
2022-09-29T06:58:04.512Z,99.05
2022-09-29T07:00:35.341Z,98.68
2022-09-29T07:03:05.018Z,97.59
2022-09-29T07:05:37.604Z,96.68
2022-09-29T07:08:07.163Z,95.42
2022-09-29T07:10:36.702Z,93.91
2022-09-29T07:13:06.294Z,91.76
2022-09-29T07:15:38.131Z,89.39
2022-09-29T07:18:07.937Z,86.28
2022-09-29T07:20:40.827Z,82.37
2022-09-29T07:23:10.783Z,78.33
2022-09-29T07:25:51.592Z,74.64
2022-09-29T07:28:22.004Z,71.07
2022-09-29T07:31:11.713Z,66.21
2022-09-29T07:33:43.638Z,65.33
2022-09-29T07:36:16.698Z,61.99
2022-09-29T07:38:48.668Z,59.56
2022-09-29T07:41:18.862Z,57.69
2022-09-29T07:43:48.840Z,55.88
2022-09-29T07:46:18.516Z,54.00
2022-09-29T07:48:48.107Z,52.37
2022-09-29T07:51:22.076Z,50.07
2022-09-29T07:53:51.685Z,49.23
2022-09-29T07:56:23.691Z,48.35
2022-09-29T07:58:54.179Z,47.26
2022-09-29T08:01:23.790Z,45.79
2022-09-29T08:03:54.789Z,45.11
2022-09-29T08:06:28.095Z,44.48
2022-09-29T08:09:04.093Z,44.11
2022-09-29T08:11:35.369Z,43.65
2022-09-29T08:14:04.996Z,42.06
2022-09-29T08:16:35.138Z,40.68
2022-09-29T08:19:05.933Z,40.61
2022-09-29T08:21:38.690Z,39.60
2022-09-29T08:24:09.564Z,40.56
2022-09-29T08:26:44.172Z,39.14
2022-09-29T08:29:17.094Z,39.04
2022-09-29T08:31:47.402Z,38.57
2022-09-29T08:34:17.810Z,37.78
2022-09-29T08:36:50.081Z,37.09
2022-09-29T08:39:20.540Z,36.41
2022-09-29T08:41:55.552Z,35.83
2022-09-29T08:44:38.531Z,35.44
2022-09-29T08:47:20.510Z,35.07
2022-09-29T08:49:51.735Z,35.29
2022-09-29T08:52:27.339Z,34.39
2022-09-29T08:55:06.303Z,34.25
2022-09-29T08:57:42.008Z,34.10
2022-09-29T09:00:14.729Z,33.82
2022-09-29T09:03:04.269Z,33.66
2022-09-29T09:05:50.144Z,33.80
2022-09-29T09:08:29.943Z,33.66
2022-09-29T09:11:04.833Z,33.32
2022-09-29T09:13:48.508Z,33.14
2022-09-29T09:16:25.495Z,32.86
2022-09-29T09:19:06.440Z,32.83
2022-09-29T09:21:43.586Z,32.50
2022-09-29T09:24:24.513Z,31.76
2022-09-29T09:26:55.275Z,32.42
2022-09-29T09:29:32.655Z,31.76
2022-09-29T09:32:07.033Z,31.39
2022-09-29T09:34:44.260Z,31.32
2022-09-29T09:37:16.492Z,30.88
2022-09-29T09:39:51.373Z,31.06
2022-09-29T09:42:24.240Z,30.97
2022-09-29T09:44:57.573Z,31.21
2022-09-29T09:47:29.670Z,31.31
2022-09-29T09:50:00.912Z,31.14
2022-09-29T09:52:35.013Z,32.02
2022-09-29T09:55:09.989Z,32.14
2022-09-29T09:57:50.168Z,32.77
2022-09-29T10:00:21.893Z,33.79
2022-09-29T10:02:53.338Z,34.74
2022-09-29T10:05:24.255Z,35.99
2022-09-29T10:07:54.547Z,37.37
2022-09-29T10:10:28.663Z,38.77
2022-09-29T10:13:01.056Z,39.68
2022-09-29T10:15:33.638Z,41.45
2022-09-29T10:18:07.729Z,42.58
2022-09-29T10:20:39.563Z,43.88
2022-09-29T10:23:28.941Z,44.45
2022-09-29T10:26:03.943Z,45.86
2022-09-29T10:28:42.506Z,46.84
2022-09-29T10:31:24.037Z,47.26
2022-09-29T10:33:56.875Z,48.19
2022-09-29T10:36:28.161Z,48.85
2022-09-29T10:39:02.365Z,49.40
2022-09-29T10:41:56.405Z,49.89
2022-09-29T10:44:26.108Z,49.91
2022-09-29T10:46:57.180Z,50.38
2022-09-29T10:49:29.069Z,50.56
2022-09-29T10:52:05.072Z,51.10
2022-09-29T10:54:37.348Z,51.27
2022-09-29T10:57:18.431Z,51.08
2022-09-29T10:59:52.821Z,50.34
2022-09-29T11:02:27.938Z,49.87
2022-09-29T11:04:59.348Z,49.92
2022-09-29T11:07:29.053Z,49.71
2022-09-29T11:09:58.621Z,50.14
2022-09-29T11:12:35.903Z,49.81
2022-09-29T11:15:24.426Z,49.68
2022-09-29T11:17:54.829Z,49.41
2022-09-29T11:20:28.467Z,48.96
2022-09-29T11:23:12.235Z,48.11
2022-09-29T11:25:59.804Z,48.68
2022-09-29T11:28:53.817Z,49.32
2022-09-29T11:31:34.995Z,49.03
2022-09-29T11:34:14.493Z,48.84
2022-09-29T11:36:48.766Z,48.88
2022-09-29T11:39:30.569Z,48.62
2022-09-29T11:42:09.070Z,48.49
2022-09-29T11:44:51.448Z,48.75
2022-09-29T11:47:33.802Z,48.89
2022-09-29T11:50:21.408Z,49.39
2022-09-29T11:53:14.400Z,49.56
2022-09-29T11:55:53.800Z,49.31
2022-09-29T11:58:38.493Z,49.27
2022-09-29T12:01:24.574Z,49.31
2022-09-29T12:04:09.813Z,49.53
2022-09-29T12:06:53.441Z,49.34
2022-09-29T12:09:49.795Z,49.21
2022-09-29T12:12:24.360Z,49.02
2022-09-29T12:15:09.247Z,49.17
2022-09-29T12:17:44.808Z,49.41
2022-09-29T12:20:20.584Z,49.37
2022-09-29T12:22:51.508Z,49.67
2022-09-29T12:25:25.007Z,49.67
2022-09-29T12:27:56.198Z,49.71
2022-09-29T12:30:30.043Z,49.69
2022-09-29T12:33:08.470Z,49.63
2022-09-29T12:35:42.025Z,49.72
2022-09-29T12:38:17.982Z,50.44
2022-09-29T12:40:52.369Z,50.73
2022-09-29T12:43:26.080Z,50.82
2022-09-29T12:46:00.784Z,50.82
2022-09-29T12:48:48.644Z,50.92
2022-09-29T12:51:25.433Z,51.05
2022-09-29T12:54:07.278Z,50.73
2022-09-29T12:56:40.207Z,50.55
2022-09-29T12:59:13.727Z,50.80
2022-09-29T13:01:43.559Z,51.27
2022-09-29T13:04:30.796Z,51.25
2022-09-29T13:07:50.776Z,51.35
2022-09-29T13:10:33.895Z,51.70
2022-09-29T13:13:19.151Z,51.65
2022-09-29T13:15:58.509Z,51.37
2022-09-29T13:18:41.883Z,51.69
2022-09-29T13:21:28.560Z,51.55
2022-09-29T13:24:05.898Z,51.39
2022-09-29T13:27:02.214Z,51.03
2022-09-29T13:29:33.936Z,50.64
2022-09-29T13:32:05.312Z,50.68
2022-09-29T13:34:36.798Z,50.21
2022-09-29T13:37:20.053Z,49.97
2022-09-29T13:40:01.317Z,49.57
2022-09-29T13:42:51.728Z,50.26
2022-09-29T13:45:45.768Z,50.24
2022-09-29T13:48:43.176Z,49.98
2022-09-29T13:51:27.499Z,49.38
2022-09-29T13:54:11.935Z,49.82
2022-09-29T13:56:44.150Z,49.51
2022-09-29T13:59:17.494Z,49.04
2022-09-29T14:01:47.157Z,48.44
2022-09-29T14:04:46.807Z,48.33
2022-09-29T14:07:19.012Z,48.28
2022-09-29T14:09:50.705Z,48.30
2022-09-29T14:12:26.661Z,47.58
2022-09-29T14:14:59.260Z,47.56
2022-09-29T14:17:31.897Z,47.56
2022-09-29T14:20:06.258Z,47.96
2022-09-29T14:23:03.555Z,47.67
2022-09-29T14:25:53.902Z,47.93
2022-09-29T14:28:31.577Z,47.92
2022-09-29T14:31:04.313Z,48.31
2022-09-29T14:33:39.460Z,48.37
2022-09-29T14:36:14.475Z,48.42
2022-09-29T14:39:02.830Z,48.40
2022-09-29T14:41:43.291Z,48.07
2022-09-29T14:44:18.889Z,48.40
2022-09-29T14:47:25.405Z,48.38
2022-09-29T14:50:15.891Z,48.65
2022-09-29T14:52:56.954Z,48.81
2022-09-29T14:55:32.107Z,49.23
2022-09-29T14:58:14.659Z,48.93
2022-09-29T15:00:58.638Z,49.59
2022-09-29T15:03:30.940Z,49.28
2022-09-29T15:06:12.916Z,49.69
2022-09-29T15:08:43.301Z,50.30
2022-09-29T15:11:36.571Z,50.91
2022-09-29T15:14:21.575Z,50.70
2022-09-29T15:17:01.709Z,50.57
2022-09-29T15:19:45.110Z,50.58
2022-09-29T15:22:32.525Z,50.66
2022-09-29T15:25:21.696Z,50.95
2022-09-29T15:27:53.563Z,51.00
2022-09-29T15:30:25.103Z,51.11
2022-09-29T15:32:59.661Z,51.06
2022-09-29T15:35:29.273Z,50.88
2022-09-29T15:38:28.913Z,51.07
2022-09-29T15:41:00.384Z,51.03
2022-09-29T15:43:34.034Z,51.14
2022-09-29T15:46:05.496Z,51.64
2022-09-29T15:48:37.669Z,51.63
2022-09-29T15:51:07.451Z,51.71
2022-09-29T15:53:39.084Z,51.86
2022-09-29T15:56:09.053Z,51.82
2022-09-29T15:58:45.673Z,51.94
2022-09-29T16:01:17.562Z,52.10
2022-09-29T16:03:52.821Z,52.03
2022-09-29T16:06:31.756Z,52.38
2022-09-29T16:09:04.106Z,52.66
2022-09-29T16:11:36.076Z,52.72
2022-09-29T16:14:07.026Z,52.87
2022-09-29T16:16:39.451Z,53.20
2022-09-29T16:19:17.343Z,53.53
2022-09-29T16:21:47.062Z,54.04
2022-09-29T16:24:19.282Z,54.13
2022-09-29T16:26:52.440Z,54.53
2022-09-29T16:29:30.574Z,54.58
2022-09-29T16:32:00.863Z,54.69
2022-09-29T16:34:36.740Z,55.37
2022-09-29T16:37:07.628Z,55.80
2022-09-29T16:39:44.237Z,56.25
2022-09-29T16:42:20.678Z,56.71
2022-09-29T16:44:54.050Z,56.90
2022-09-29T16:47:27.280Z,57.38
2022-09-29T16:50:02.564Z,57.92
2022-09-29T16:52:35.284Z,58.56
2022-09-29T16:55:18.648Z,59.60
2022-09-29T16:57:53.887Z,60.27
2022-09-29T17:00:23.728Z,60.27
2022-09-29T17:02:55.372Z,60.60
2022-09-29T17:05:28.416Z,61.02
2022-09-29T17:08:03.362Z,61.17
2022-09-29T17:10:33.370Z,61.44
2022-09-29T17:13:03.899Z,61.82
2022-09-29T17:15:34.203Z,62.15
2022-09-29T17:18:03.916Z,62.97
2022-09-29T17:20:36.093Z,63.89
2022-09-29T17:23:06.031Z,64.60
2022-09-29T17:25:35.834Z,65.35
2022-09-29T17:28:12.440Z,66.21
2022-09-29T17:30:42.991Z,66.90
2022-09-29T17:33:15.279Z,67.52
2022-09-29T17:35:51.642Z,68.25
2022-09-29T17:38:25.721Z,68.62
2022-09-29T17:40:58.888Z,69.32
2022-09-29T17:43:28.658Z,69.74
2022-09-29T17:45:58.687Z,70.21
2022-09-29T17:48:28.534Z,70.82
2022-09-29T17:51:00.745Z,71.48
2022-09-29T17:53:30.348Z,71.84
2022-09-29T17:56:02.821Z,72.04
2022-09-29T17:58:32.378Z,72.31
2022-09-29T18:01:02.409Z,72.57
2022-09-29T18:03:39.134Z,73.19
2022-09-29T18:06:15.237Z,73.75
2022-09-29T18:08:44.824Z,74.06
2022-09-29T18:11:14.385Z,74.70
2022-09-29T18:13:43.934Z,74.82
2022-09-29T18:16:14.854Z,75.34
2022-09-29T18:18:45.031Z,75.73
2022-09-29T18:21:20.224Z,76.15
2022-09-29T18:23:50.063Z,76.41
2022-09-29T18:26:21.301Z,76.80
2022-09-29T18:28:51.590Z,77.05
2022-09-29T18:31:26.426Z,77.45
2022-09-29T18:33:56.658Z,77.69
2022-09-29T18:36:29.025Z,77.99
2022-09-29T18:38:58.634Z,78.25
2022-09-29T18:41:28.453Z,78.39
2022-09-29T18:43:59.588Z,78.58
2022-09-29T18:46:29.942Z,78.90
2022-09-29T18:48:59.634Z,78.98
2022-09-29T18:51:31.786Z,79.36
2022-09-29T18:54:02.246Z,79.24
2022-09-29T18:56:32.460Z,79.29
2022-09-29T18:59:02.040Z,79.33
2022-09-29T19:01:31.679Z,79.34
2022-09-29T19:04:01.548Z,79.10
2022-09-29T19:06:33.690Z,79.16
2022-09-29T19:09:03.293Z,79.13
2022-09-29T19:11:33.758Z,79.22
2022-09-29T19:14:03.723Z,79.10
2022-09-29T19:16:34.214Z,79.22
2022-09-29T19:19:04.552Z,79.27
2022-09-29T19:21:36.888Z,79.39
2022-09-29T19:24:06.618Z,79.42
2022-09-29T19:26:36.194Z,79.55
2022-09-29T19:29:05.750Z,79.92
2022-09-29T19:31:35.382Z,80.15
2022-09-29T19:34:04.950Z,80.11
2022-09-29T19:36:39.135Z,80.46
2022-09-29T19:39:10.357Z,80.49
2022-09-29T19:41:40.280Z,80.14
2022-09-29T19:44:10.653Z,80.47
2022-09-29T19:46:40.950Z,80.29
2022-09-29T19:49:10.974Z,80.52
2022-09-29T19:51:57.783Z,80.44
2022-09-29T19:54:33.321Z,80.36
2022-09-29T19:57:05.654Z,80.34
2022-09-29T19:59:37.692Z,80.14
2022-09-29T20:02:12.267Z,80.15
2022-09-29T20:04:42.349Z,80.15
2022-09-29T20:07:14.448Z,80.31
2022-09-29T20:09:44.143Z,80.38
2022-09-29T20:12:18.514Z,80.65
2022-09-29T20:14:48.958Z,80.79
2022-09-29T20:17:18.509Z,80.88
2022-09-29T20:19:48.432Z,81.24
2022-09-29T20:22:20.613Z,81.33
2022-09-29T20:24:50.471Z,81.49
2022-09-29T20:27:20.174Z,81.57
2022-09-29T20:29:49.767Z,81.53
2022-09-29T20:32:19.541Z,81.83
2022-09-29T20:34:49.227Z,81.95
2022-09-29T20:37:21.367Z,82.14
2022-09-29T20:39:50.993Z,82.21
2022-09-29T20:42:20.822Z,82.36
2022-09-29T20:44:56.019Z,82.86
2022-09-29T20:47:27.594Z,82.99
2022-09-29T20:49:57.204Z,83.23
2022-09-29T20:52:29.346Z,83.41
2022-09-29T20:55:00.891Z,83.68
2022-09-29T20:57:30.778Z,83.83
2022-09-29T21:00:00.330Z,84.11
2022-09-29T21:02:30.310Z,84.28
2022-09-29T21:04:59.952Z,84.56
2022-09-29T21:07:43.029Z,85.06
2022-09-29T21:10:13.221Z,85.08
2022-09-29T21:12:42.812Z,85.53
2022-09-29T21:15:13.193Z,85.83
2022-09-29T21:17:43.077Z,85.88
2022-09-29T21:20:12.699Z,86.05
2022-09-29T21:22:44.800Z,86.01
2022-09-29T21:25:14.621Z,86.08
2022-09-29T21:27:44.162Z,86.13
2022-09-29T21:30:14.121Z,85.97
2022-09-29T21:32:43.675Z,86.05
2022-09-29T21:35:13.229Z,86.13
2022-09-29T21:37:45.339Z,86.20
2022-09-29T21:40:14.913Z,86.48
2022-09-29T21:42:44.470Z,86.55
2022-09-29T21:45:14.191Z,86.54
2022-09-29T21:47:56.198Z,86.72
2022-09-29T21:50:25.801Z,86.92
2022-09-29T21:52:57.919Z,87.17
2022-09-29T21:55:27.557Z,87.15
2022-09-29T21:57:57.129Z,87.16
2022-09-29T22:00:26.696Z,87.54
2022-09-29T22:02:56.331Z,87.76
2022-09-29T22:05:26.020Z,87.63
2022-09-29T22:07:58.216Z,87.81
2022-09-29T22:10:27.807Z,87.63
2022-09-29T22:12:57.397Z,87.78
2022-09-29T22:15:28.459Z,88.02
2022-09-29T22:17:58.081Z,87.99
2022-09-29T22:20:27.627Z,88.20
2022-09-29T22:22:59.777Z,88.28
2022-09-29T22:25:32.890Z,88.23
2022-09-29T22:28:03.045Z,88.31
2022-09-29T22:30:32.587Z,88.36
2022-09-29T22:33:02.264Z,88.70
2022-09-29T22:35:35.768Z,88.58
2022-09-29T22:38:08.216Z,88.70
2022-09-29T22:40:38.887Z,88.88
2022-09-29T22:43:09.285Z,89.01
2022-09-29T22:45:38.855Z,88.98
2022-09-29T22:48:08.521Z,89.10
2022-09-29T22:50:38.181Z,89.14
2022-09-29T22:53:10.397Z,89.38
2022-09-29T22:55:39.948Z,89.48
2022-09-29T22:58:09.545Z,89.55
2022-09-29T23:00:39.491Z,89.71
2022-09-29T23:03:10.792Z,90.15
2022-09-29T23:05:41.483Z,90.24
2022-09-29T23:08:14.139Z,90.17
2022-09-29T23:10:48.864Z,90.01
2022-09-29T23:13:21.434Z,90.09
2022-09-29T23:15:51.822Z,90.30
2022-09-29T23:18:21.624Z,90.38
2022-09-29T23:20:51.219Z,90.17
2022-09-29T23:23:23.419Z,90.36
2022-09-29T23:25:52.978Z,90.50
2022-09-29T23:28:22.556Z,90.58
2022-09-29T23:30:52.154Z,90.55
2022-09-29T23:33:21.838Z,90.40
2022-09-29T23:35:51.586Z,90.78
2022-09-29T23:38:36.213Z,90.78
2022-09-29T23:41:05.758Z,90.76
2022-09-29T23:43:35.375Z,90.88
2022-09-29T23:46:04.970Z,90.74
2022-09-29T23:48:34.557Z,90.87
2022-09-29T23:51:04.147Z,90.95
2022-09-29T23:53:36.351Z,91.01
2022-09-29T23:56:06.387Z,91.13
2022-09-29T23:58:36.158Z,91.30
